createdAt,value
2018-04-08T07:49:51.516Z,25760.00
2018-04-08T07:50:27.227Z,26528.00
2018-04-08T07:51:02.551Z,25984.00
2018-04-08T07:51:38.048Z,25472.00
2018-04-08T07:52:13.668Z,25792.00
2018-04-08T07:52:49.065Z,24864.00
2018-04-08T07:53:24.400Z,23648.00
2018-04-08T07:53:59.692Z,36480.00
2018-04-08T07:54:35.921Z,26496.00
2018-04-08T07:55:11.226Z,20160.00
2018-04-08T07:55:46.904Z,20256.00
2018-04-08T07:56:22.207Z,19040.00
2018-04-08T07:56:57.629Z,23360.00
2018-04-08T07:57:33.072Z,16160.00
2018-04-08T07:58:08.705Z,22848.00
2018-04-08T07:58:44.218Z,19552.00
2018-04-08T07:59:19.493Z,17152.00
2018-04-08T07:59:54.782Z,14756.00
2018-04-08T08:00:30.149Z,17088.00
2018-04-08T08:01:05.422Z,15368.00
2018-04-08T08:01:40.845Z,13492.00
2018-04-08T08:02:16.174Z,15168.00
2018-04-08T08:02:51.513Z,19424.00
2018-04-08T08:03:26.845Z,19488.00
2018-04-08T08:04:02.170Z,19488.00
2018-04-08T08:04:37.467Z,27136.00
2018-04-08T08:05:14.402Z,21600.00
2018-04-08T08:05:49.504Z,15420.00
2018-04-08T08:06:25.065Z,12972.00
2018-04-08T08:07:00.548Z,11732.00
2018-04-08T08:07:36.091Z,11436.00
2018-04-08T08:08:11.813Z,11320.00
2018-04-08T08:08:47.278Z,11032.00
2018-04-08T08:09:22.674Z,11804.00
2018-04-08T08:09:58.010Z,13080.00
2018-04-08T08:10:33.414Z,12104.00
2018-04-08T08:11:08.735Z,11756.00
2018-04-08T08:11:44.456Z,10940.00
2018-04-08T08:12:19.892Z,11924.00
2018-04-08T08:12:55.481Z,14536.00
2018-04-08T08:13:30.925Z,12620.00
2018-04-08T08:14:06.426Z,13204.00
2018-04-08T08:14:42.573Z,15156.00
2018-04-08T08:15:18.110Z,13836.00
2018-04-08T08:15:53.536Z,17984.00
2018-04-08T08:16:28.866Z,16736.00
2018-04-08T08:17:04.291Z,19136.00
2018-04-08T08:17:39.872Z,23584.00
2018-04-08T08:18:15.450Z,30592.00
2018-04-08T08:18:50.852Z,30016.00
2018-04-08T08:19:26.097Z,32960.00
2018-04-08T08:20:01.905Z,29152.00
2018-04-08T08:20:37.545Z,48704.00
2018-04-08T08:21:12.923Z,44672.00
2018-04-08T08:21:48.044Z,36928.00
2018-04-08T08:22:23.220Z,30880.00
2018-04-08T08:22:58.694Z,39360.00
2018-04-08T08:23:34.037Z,35680.00
2018-04-08T08:24:09.372Z,35680.00
2018-04-08T08:24:45.182Z,36832.00
2018-04-08T08:25:20.653Z,32544.00
2018-04-08T08:25:55.943Z,25376.00
2018-04-08T08:26:31.381Z,26464.00
2018-04-08T08:27:06.993Z,47648.00
2018-04-08T08:27:42.772Z,49952.00
2018-04-08T08:28:18.244Z,46400.00
2018-04-08T08:28:53.552Z,38176.00
2018-04-08T08:29:29.848Z,40992.00
2018-04-08T08:30:05.304Z,49248.00
2018-04-08T08:30:42.358Z,50560.00
2018-04-08T08:31:17.596Z,47680.00
2018-04-08T08:31:53.077Z,51520.00
2018-04-08T08:32:28.280Z,48256.00
2018-04-08T08:33:03.606Z,41664.00
2018-04-08T08:33:40.654Z,37760.00
2018-04-08T08:34:15.655Z,41056.00
2018-04-08T08:34:50.974Z,38144.00
2018-04-08T08:35:26.097Z,45280.00
2018-04-08T08:36:01.447Z,49984.00
2018-04-08T08:36:36.754Z,46496.00
2018-04-08T08:37:11.786Z,53312.00
2018-04-08T08:37:46.999Z,55296.00
2018-04-08T08:38:22.829Z,49024.00
2018-04-08T08:38:58.133Z,53760.00
2018-04-08T08:39:33.653Z,54336.00
2018-04-08T08:40:09.136Z,54432.00
2018-04-08T08:40:47.182Z,54752.00
2018-04-08T08:41:22.364Z,54144.00
2018-04-08T08:41:57.707Z,38592.00
2018-04-08T08:42:33.301Z,27872.00
2018-04-08T08:43:08.644Z,33216.00
2018-04-08T08:43:44.107Z,23360.00
2018-04-08T08:44:19.457Z,22720.00
2018-04-08T08:44:58.877Z,30656.00
2018-04-08T08:45:34.807Z,26784.00
2018-04-08T08:46:10.303Z,24960.00
2018-04-08T08:46:45.813Z,39488.00
2018-04-08T08:47:21.295Z,35776.00
2018-04-08T08:47:56.658Z,53280.00
2018-04-08T08:48:32.129Z,53056.00
2018-04-08T08:49:07.477Z,48480.00
2018-04-08T08:49:43.567Z,51328.00
2018-04-08T08:50:18.811Z,51008.00
2018-04-08T08:50:54.132Z,50688.00
2018-04-08T08:51:29.657Z,50624.00
2018-04-08T08:52:05.151Z,49600.00
2018-04-08T08:52:40.694Z,48768.00
2018-04-08T08:53:15.894Z,47200.00
2018-04-08T08:53:51.220Z,47232.00
2018-04-08T08:54:26.409Z,45920.00
2018-04-08T08:55:02.073Z,45504.00
2018-04-08T08:55:37.171Z,45312.00
2018-04-08T08:56:12.835Z,45056.00
2018-04-08T08:56:48.080Z,44736.00
2018-04-08T08:57:23.475Z,44320.00
2018-04-08T08:57:58.882Z,44448.00
2018-04-08T08:58:34.096Z,44224.00
2018-04-08T08:59:09.389Z,44416.00
2018-04-08T08:59:44.632Z,44192.00
2018-04-08T09:00:20.056Z,43968.00
2018-04-08T09:00:56.743Z,43776.00
2018-04-08T09:01:32.006Z,44416.00
2018-04-08T09:02:07.343Z,44000.00
2018-04-08T09:02:41.100Z,43872.00
2018-04-08T09:03:16.729Z,44064.00
2018-04-08T09:03:52.641Z,44544.00
2018-04-08T09:04:30.163Z,45792.00
2018-04-08T09:05:05.598Z,46656.00
2018-04-08T09:05:41.752Z,46432.00
2018-04-08T09:06:17.292Z,47776.00
2018-04-08T09:06:54.118Z,48448.00
2018-04-08T09:07:29.913Z,49408.00
2018-04-08T09:08:06.542Z,50784.00
2018-04-08T09:08:41.866Z,45504.00
2018-04-08T09:09:20.432Z,46624.00
2018-04-08T09:09:55.978Z,46816.00
2018-04-08T09:10:31.215Z,40224.00
2018-04-08T09:11:07.019Z,47872.00
2018-04-08T09:11:42.763Z,53440.00
2018-04-08T09:12:18.087Z,41664.00
2018-04-08T09:12:53.606Z,37888.00
2018-04-08T09:13:29.400Z,39296.00
2018-04-08T09:14:04.821Z,42304.00
2018-04-08T09:14:40.142Z,36896.00
2018-04-08T09:15:15.466Z,32032.00
2018-04-08T09:15:51.955Z,36896.00
2018-04-08T09:16:27.404Z,39296.00
2018-04-08T09:17:02.698Z,43840.00
2018-04-08T09:17:38.620Z,56320.00
2018-04-08T09:18:13.955Z,45728.00
2018-04-08T09:18:49.370Z,38464.00
2018-04-08T09:19:24.861Z,38432.00
2018-04-08T09:20:00.191Z,44352.00
2018-04-08T09:20:35.682Z,34240.00
2018-04-08T09:21:11.121Z,32416.00
2018-04-08T09:21:46.237Z,33728.00
2018-04-08T09:22:21.592Z,32160.00
2018-04-08T09:22:56.887Z,29888.00
2018-04-08T09:23:32.523Z,28320.00
2018-04-08T09:24:08.346Z,31808.00
2018-04-08T09:24:45.254Z,33664.00
2018-04-08T09:25:22.268Z,36160.00
2018-04-08T09:25:57.698Z,36768.00
2018-04-08T09:26:32.825Z,40032.00
2018-04-08T09:27:08.230Z,44736.00
2018-04-08T09:27:44.987Z,46016.00
2018-04-08T09:28:20.217Z,46176.00
2018-04-08T09:28:55.737Z,42048.00
2018-04-08T09:29:31.358Z,37056.00
2018-04-08T09:30:06.664Z,34464.00
2018-04-08T09:30:45.693Z,34016.00
2018-04-08T09:31:21.254Z,33376.00
2018-04-08T09:31:56.704Z,29952.00
2018-04-08T09:32:32.093Z,27648.00
2018-04-08T09:33:07.414Z,26240.00
2018-04-08T09:33:43.701Z,26304.00
2018-04-08T09:34:18.960Z,25760.00
2018-04-08T09:34:54.203Z,25824.00
2018-04-08T09:35:29.849Z,26560.00
2018-04-08T09:36:04.943Z,28064.00
2018-04-08T09:36:41.127Z,28128.00
2018-04-08T09:37:16.429Z,30368.00
2018-04-08T09:37:51.757Z,33184.00
2018-04-08T09:38:27.251Z,32096.00
2018-04-08T09:39:03.487Z,30528.00
2018-04-08T09:39:39.209Z,29984.00
2018-04-08T09:40:14.747Z,29344.00
2018-04-08T09:40:50.056Z,28704.00
2018-04-08T09:41:25.510Z,27968.00
2018-04-08T09:42:00.809Z,29376.00
2018-04-08T09:42:36.353Z,28832.00
2018-04-08T09:43:11.543Z,30688.00
2018-04-08T09:43:47.004Z,31552.00
2018-04-08T09:44:22.795Z,30048.00
2018-04-08T09:44:58.432Z,30752.00
2018-04-08T09:45:34.044Z,31808.00
2018-04-08T09:46:09.260Z,29536.00
2018-04-08T09:46:44.569Z,28608.00
2018-04-08T09:47:20.004Z,29248.00
2018-04-08T09:47:55.576Z,31104.00
2018-04-08T09:48:31.084Z,33888.00
2018-04-08T09:49:06.378Z,35840.00
2018-04-08T09:49:41.823Z,30496.00
2018-04-08T09:50:17.445Z,28896.00
2018-04-08T09:50:53.064Z,27712.00
2018-04-08T09:51:28.290Z,28192.00
2018-04-08T09:52:03.506Z,28096.00
2018-04-08T09:52:39.009Z,32128.00
2018-04-08T09:53:14.559Z,33248.00
2018-04-08T09:53:49.745Z,31680.00
2018-04-08T09:54:25.399Z,31328.00
2018-04-08T09:55:00.697Z,30912.00
2018-04-08T09:55:36.249Z,33184.00
2018-04-08T09:56:11.859Z,43456.00
2018-04-08T09:56:47.075Z,45216.00
2018-04-08T09:57:22.463Z,45376.00
2018-04-08T09:57:57.692Z,47264.00
2018-04-08T09:58:33.132Z,53184.00
2018-04-08T09:59:08.562Z,61056.00
2018-04-08T09:59:44.693Z,49376.00
2018-04-08T10:00:20.146Z,57504.00
2018-04-08T10:00:55.445Z,53952.00
2018-04-08T10:01:30.891Z,67424.00
2018-04-08T10:02:06.412Z,71040.00
2018-04-08T10:02:41.933Z,70592.00
2018-04-08T10:03:17.225Z,63328.00
2018-04-08T10:03:52.264Z,62656.00
2018-04-08T10:04:27.650Z,54432.00
2018-04-08T10:05:03.174Z,61024.00
2018-04-08T10:05:39.283Z,67648.00
2018-04-08T10:06:14.455Z,63904.00
2018-04-08T10:06:49.697Z,65952.00
2018-04-08T10:07:25.131Z,64992.00
2018-04-08T10:08:00.562Z,64608.00
2018-04-08T10:08:35.879Z,63584.00
2018-04-08T10:09:11.377Z,63744.00
2018-04-08T10:09:46.700Z,63296.00
2018-04-08T10:10:22.117Z,63904.00
2018-04-08T10:10:57.577Z,63264.00
2018-04-08T10:11:33.323Z,63456.00
2018-04-08T10:12:08.673Z,63584.00
2018-04-08T10:12:43.998Z,63680.00
2018-04-08T10:13:19.558Z,62368.00
2018-04-08T10:13:54.889Z,53536.00
2018-04-08T10:14:30.233Z,49792.00
2018-04-08T10:15:05.354Z,59456.00
2018-04-08T10:15:40.982Z,45152.00
2018-04-08T10:16:16.218Z,33824.00
2018-04-08T10:16:51.558Z,28992.00
2018-04-08T10:17:26.663Z,31776.00
2018-04-08T10:18:03.584Z,25664.00
2018-04-08T10:18:39.111Z,23904.00
2018-04-08T10:19:14.776Z,21184.00
2018-04-08T10:19:50.380Z,19392.00
2018-04-08T10:20:25.459Z,18912.00
2018-04-08T10:21:00.851Z,18592.00
2018-04-08T10:21:36.319Z,20352.00
2018-04-08T10:22:11.632Z,20064.00
2018-04-08T10:22:46.876Z,26912.00
2018-04-08T10:23:22.345Z,21760.00
2018-04-08T10:23:57.650Z,27168.00
2018-04-08T10:24:33.032Z,26912.00
2018-04-08T10:25:08.309Z,20288.00
2018-04-08T10:25:43.923Z,18112.00
2018-04-08T10:26:19.187Z,18016.00
2018-04-08T10:26:54.596Z,20320.00
2018-04-08T10:27:29.925Z,23744.00
2018-04-08T10:28:05.219Z,30432.00
2018-04-08T10:28:40.454Z,36352.00
2018-04-08T10:29:15.746Z,31552.00
2018-04-08T10:29:51.132Z,29696.00
2018-04-08T10:30:26.940Z,30304.00
2018-04-08T10:31:02.282Z,32000.00
2018-04-08T10:31:37.412Z,33920.00
2018-04-08T10:32:13.147Z,29088.00
2018-04-08T10:32:48.476Z,23008.00
2018-04-08T10:33:23.688Z,21120.00
2018-04-08T10:33:58.897Z,20288.00
2018-04-08T10:34:34.376Z,19744.00
2018-04-08T10:35:09.676Z,19648.00
2018-04-08T10:35:45.512Z,20768.00
2018-04-08T10:36:20.870Z,23616.00
2018-04-08T10:36:56.384Z,24160.00
2018-04-08T10:37:31.716Z,25024.00
2018-04-08T10:38:07.619Z,25472.00
2018-04-08T10:38:43.259Z,27904.00
2018-04-08T10:39:18.589Z,29728.00
2018-04-08T10:39:53.702Z,26592.00
2018-04-08T10:40:28.932Z,26496.00
2018-04-08T10:41:04.152Z,25632.00
2018-04-08T10:41:39.436Z,23232.00
2018-04-08T10:42:14.878Z,22112.00
2018-04-08T10:42:50.121Z,20832.00
2018-04-08T10:43:25.459Z,20128.00
2018-04-08T10:44:01.078Z,19264.00
2018-04-08T10:44:36.398Z,18656.00
2018-04-08T10:45:11.797Z,18176.00
2018-04-08T10:45:49.136Z,17856.00
2018-04-08T10:46:24.593Z,17632.00
2018-04-08T10:46:59.797Z,17504.00
2018-04-08T10:47:35.643Z,17472.00
2018-04-08T10:48:10.846Z,17376.00
2018-04-08T10:48:47.003Z,17184.00
2018-04-08T10:49:22.534Z,17024.00
2018-04-08T10:49:58.165Z,16864.00
2018-04-08T10:50:33.265Z,16544.00
2018-04-08T10:51:08.687Z,16328.00
2018-04-08T10:51:44.317Z,16100.00
2018-04-08T10:52:19.874Z,15932.00
2018-04-08T10:52:55.183Z,15808.00
2018-04-08T10:53:30.744Z,15752.00
2018-04-08T10:54:06.042Z,15804.00
2018-04-08T10:54:41.375Z,15924.00
2018-04-08T10:55:16.676Z,16088.00
2018-04-08T10:55:52.214Z,16284.00
2018-04-08T10:56:27.650Z,16488.00
2018-04-08T10:57:02.905Z,16632.00
2018-04-08T10:57:38.624Z,16928.00
2018-04-08T10:58:14.082Z,17088.00
2018-04-08T10:58:49.517Z,17216.00
2018-04-08T10:59:25.048Z,17408.00
2018-04-08T11:00:00.364Z,17536.00
2018-04-08T11:00:36.207Z,17632.00
2018-04-08T11:01:11.405Z,17728.00
2018-04-08T11:01:46.868Z,17856.00
2018-04-08T11:02:22.420Z,17920.00
2018-04-08T11:02:57.651Z,17664.00
2018-04-08T11:03:33.256Z,17504.00
2018-04-08T11:04:08.472Z,17408.00
2018-04-08T11:04:44.143Z,17312.00
2018-04-08T11:05:19.645Z,17184.00
2018-04-08T11:05:56.757Z,17120.00
2018-04-08T11:06:32.182Z,16992.00
2018-04-08T11:07:07.598Z,16928.00
2018-04-08T11:07:43.457Z,16712.00
2018-04-08T11:08:18.741Z,16608.00
2018-04-08T11:08:53.781Z,16468.00
2018-04-08T11:09:28.885Z,16364.00
2018-04-08T11:10:03.946Z,16336.00
2018-04-08T11:10:40.044Z,16320.00
2018-04-08T11:11:15.589Z,16264.00
2018-04-08T11:11:50.774Z,16204.00
2018-04-08T11:12:26.334Z,16148.00
2018-04-08T11:13:01.635Z,16084.00
2018-04-08T11:13:36.962Z,16100.00
2018-04-08T11:14:12.783Z,15904.00
2018-04-08T11:14:48.433Z,15792.00
2018-04-08T11:15:23.733Z,15804.00
2018-04-08T11:15:58.974Z,16400.00
2018-04-08T11:16:34.127Z,16372.00
2018-04-08T11:17:09.279Z,16476.00
2018-04-08T11:17:44.615Z,16156.00
2018-04-08T11:18:20.156Z,15952.00
2018-04-08T11:18:55.655Z,16136.00
2018-04-08T11:19:30.912Z,17024.00
2018-04-08T11:20:06.100Z,17856.00
2018-04-08T11:20:41.561Z,18208.00
2018-04-08T11:21:16.962Z,18560.00
2018-04-08T11:21:52.492Z,18816.00
2018-04-08T11:22:27.725Z,18944.00
2018-04-08T11:23:03.052Z,18816.00
2018-04-08T11:23:38.451Z,18688.00
2018-04-08T11:24:13.718Z,18400.00
2018-04-08T11:24:48.914Z,17984.00
2018-04-08T11:25:24.453Z,17696.00
2018-04-08T11:25:59.961Z,17056.00
2018-04-08T11:26:35.414Z,16896.00
2018-04-08T11:27:10.690Z,16380.00
2018-04-08T11:27:45.869Z,16024.00
2018-04-08T11:28:21.474Z,15680.00
2018-04-08T11:28:57.216Z,15292.00
2018-04-08T11:29:32.724Z,14896.00
2018-04-08T11:30:08.284Z,14484.00
2018-04-08T11:30:44.104Z,14208.00
2018-04-08T11:31:19.458Z,13848.00
2018-04-08T11:31:54.973Z,13544.00
2018-04-08T11:32:30.215Z,13236.00
2018-04-08T11:33:05.415Z,12808.00
2018-04-08T11:33:40.751Z,12416.00
2018-04-08T11:34:16.349Z,12708.00
2018-04-08T11:34:51.607Z,12632.00
2018-04-08T11:35:26.995Z,12604.00
2018-04-08T11:36:02.328Z,12548.00
2018-04-08T11:36:37.728Z,12340.00
2018-04-08T11:37:13.094Z,12232.00
2018-04-08T11:37:48.999Z,11464.00
2018-04-08T11:38:24.139Z,6140.00
2018-04-08T11:38:59.568Z,5900.00
2018-04-08T11:39:34.983Z,6872.00
2018-04-08T11:40:10.396Z,8596.00
2018-04-08T11:40:45.832Z,8716.00
2018-04-08T11:41:20.924Z,9052.00
2018-04-08T11:41:56.155Z,9688.00
2018-04-08T11:42:31.579Z,9924.00
2018-04-08T11:43:06.723Z,9768.00
2018-04-08T11:43:43.618Z,9992.00
2018-04-08T11:44:19.299Z,9772.00
2018-04-08T11:44:54.621Z,9884.00
2018-04-08T11:45:29.872Z,9944.00
2018-04-08T11:46:05.114Z,10000.00
2018-04-08T11:46:40.851Z,9868.00
2018-04-08T11:47:16.323Z,9468.00
2018-04-08T11:47:51.720Z,10072.00
2018-04-08T11:48:27.029Z,10416.00
2018-04-08T11:49:02.257Z,10132.00
2018-04-08T11:49:37.560Z,8464.00
2018-04-08T11:50:13.008Z,8352.00
2018-04-08T11:50:49.356Z,8896.00
2018-04-08T11:51:25.087Z,8696.00
2018-04-08T11:52:00.496Z,8232.00
2018-04-08T11:52:36.082Z,8484.00
2018-04-08T11:53:11.489Z,9044.00
2018-04-08T11:53:46.917Z,8988.00
2018-04-08T11:54:22.236Z,8976.00
2018-04-08T11:54:57.767Z,7988.00
2018-04-08T11:55:33.193Z,7572.00
2018-04-08T11:56:08.821Z,7516.00
2018-04-08T11:56:45.329Z,7688.00
2018-04-08T11:57:20.697Z,7864.00
2018-04-08T11:57:56.195Z,8120.00
2018-04-08T11:58:31.637Z,8228.00
2018-04-08T11:59:06.956Z,8328.00
2018-04-08T11:59:42.481Z,8724.00
2018-04-08T12:00:17.715Z,8632.00
2018-04-08T12:00:54.565Z,8464.00
2018-04-08T12:01:29.880Z,9304.00
2018-04-08T12:02:05.134Z,9180.00
2018-04-08T12:02:40.437Z,8412.00
2018-04-08T12:03:16.065Z,8724.00
2018-04-08T12:03:51.176Z,9188.00
2018-04-08T12:04:26.606Z,8464.00
2018-04-08T12:05:04.708Z,8976.00
2018-04-08T12:05:39.856Z,9540.00
2018-04-08T12:06:14.980Z,9964.00
2018-04-08T12:06:50.215Z,10012.00
2018-04-08T12:07:25.678Z,10540.00
2018-04-08T12:08:00.824Z,10708.00
2018-04-08T12:08:36.242Z,10464.00
2018-04-08T12:09:11.579Z,10812.00
2018-04-08T12:09:47.002Z,10340.00
2018-04-08T12:10:22.670Z,11560.00
2018-04-08T12:10:59.047Z,12212.00
2018-04-08T12:11:34.377Z,12624.00
2018-04-08T12:12:10.094Z,14276.00
2018-04-08T12:12:45.651Z,14216.00
2018-04-08T12:13:20.853Z,13340.00
2018-04-08T12:13:56.288Z,13924.00
2018-04-08T12:14:31.588Z,12144.00
2018-04-08T12:15:07.066Z,11480.00
2018-04-08T12:15:42.297Z,12376.00
2018-04-08T12:16:17.826Z,12168.00
2018-04-08T12:16:53.084Z,11936.00
2018-04-08T12:17:28.644Z,11584.00
2018-04-08T12:18:03.937Z,11368.00
2018-04-08T12:18:39.575Z,11120.00
2018-04-08T12:19:14.766Z,10772.00
2018-04-08T12:19:49.801Z,10700.00
2018-04-08T12:20:25.228Z,10596.00
2018-04-08T12:21:00.788Z,10488.00
2018-04-08T12:21:35.996Z,10276.00
2018-04-08T12:22:11.444Z,10176.00
2018-04-08T12:22:46.906Z,9980.00
2018-04-08T12:23:22.243Z,9872.00
2018-04-08T12:23:57.526Z,9784.00
2018-04-08T12:24:32.866Z,10432.00
2018-04-08T12:25:08.472Z,9296.00
2018-04-08T12:25:43.814Z,9348.00
2018-04-08T12:26:19.241Z,9456.00
2018-04-08T12:26:55.268Z,9536.00
2018-04-08T12:27:30.605Z,9452.00
2018-04-08T12:28:05.935Z,9452.00
2018-04-08T12:28:41.304Z,9396.00
2018-04-08T12:29:16.626Z,9300.00
2018-04-08T12:29:52.049Z,9392.00
2018-04-08T12:30:27.680Z,9156.00
2018-04-08T12:31:03.206Z,9392.00
2018-04-08T12:31:38.532Z,9628.00
2018-04-08T12:32:13.795Z,9060.00
2018-04-08T12:32:49.334Z,9292.00
2018-04-08T12:33:24.628Z,9272.00
2018-04-08T12:34:00.158Z,9408.00
2018-04-08T12:34:35.550Z,9056.00
2018-04-08T12:35:10.881Z,8924.00
2018-04-08T12:35:46.272Z,8728.00
2018-04-08T12:36:21.539Z,9844.00
2018-04-08T12:36:56.962Z,9820.00
2018-04-08T12:37:32.647Z,9892.00
2018-04-08T12:38:08.065Z,10064.00
2018-04-08T12:38:43.522Z,10060.00
2018-04-08T12:39:18.933Z,10048.00
2018-04-08T12:39:54.184Z,10136.00
2018-04-08T12:40:29.694Z,10128.00
2018-04-08T12:41:05.235Z,10112.00
2018-04-08T12:41:40.331Z,10120.00
2018-04-08T12:42:15.784Z,10124.00
2018-04-08T12:42:51.230Z,10148.00
2018-04-08T12:43:26.772Z,10148.00
2018-04-08T12:44:02.166Z,10084.00
2018-04-08T12:44:37.514Z,10040.00
2018-04-08T12:45:12.750Z,9968.00
2018-04-08T12:45:48.483Z,9888.00
2018-04-08T12:46:23.978Z,9912.00
2018-04-08T12:46:59.120Z,9860.00
2018-04-08T12:47:34.447Z,9868.00
2018-04-08T12:48:09.892Z,9988.00
2018-04-08T12:48:46.723Z,10008.00
2018-04-08T12:49:22.482Z,9984.00
2018-04-08T12:49:57.792Z,9884.00
2018-04-08T12:50:32.825Z,9748.00
2018-04-08T12:51:08.163Z,9408.00
2018-04-08T12:51:43.775Z,8964.00
2018-04-08T12:52:19.349Z,8676.00
2018-04-08T12:52:54.672Z,8608.00
2018-04-08T12:53:30.204Z,8532.00
2018-04-08T12:54:05.750Z,8376.00
2018-04-08T12:54:41.244Z,8240.00
2018-04-08T12:55:16.510Z,8196.00
2018-04-08T12:55:52.019Z,8224.00
2018-04-08T12:56:27.354Z,8348.00
2018-04-08T12:57:02.567Z,8244.00
2018-04-08T12:57:37.857Z,8276.00
2018-04-08T12:58:13.261Z,8340.00
2018-04-08T12:58:49.954Z,8420.00
2018-04-08T12:59:25.460Z,8516.00
2018-04-08T13:00:01.004Z,8512.00
2018-04-08T13:00:38.400Z,8388.00
2018-04-08T13:01:13.643Z,8328.00
2018-04-08T13:01:48.854Z,8288.00
2018-04-08T13:02:24.123Z,8300.00
2018-04-08T13:02:59.233Z,8340.00
2018-04-08T13:03:34.660Z,8400.00
2018-04-08T13:04:09.929Z,8488.00
2018-04-08T13:04:45.278Z,8572.00
2018-04-08T13:05:20.914Z,8540.00
2018-04-08T13:05:56.452Z,8576.00
2018-04-08T13:06:31.644Z,8716.00
2018-04-08T13:07:07.178Z,8836.00
2018-04-08T13:07:42.598Z,8960.00
2018-04-08T13:08:18.165Z,9088.00
2018-04-08T13:08:53.421Z,9028.00
2018-04-08T13:09:28.866Z,9176.00
2018-04-08T13:10:04.170Z,9244.00
2018-04-08T13:10:41.932Z,9284.00
2018-04-08T13:11:17.333Z,9436.00
2018-04-08T13:11:52.668Z,9432.00
2018-04-08T13:12:28.422Z,9360.00
2018-04-08T13:13:03.774Z,9356.00
2018-04-08T13:13:39.194Z,9444.00
2018-04-08T13:14:14.868Z,8992.00
2018-04-08T13:14:50.173Z,9352.00
2018-04-08T13:15:25.411Z,9304.00
2018-04-08T13:16:01.134Z,9284.00
2018-04-08T13:16:36.817Z,9392.00
2018-04-08T13:17:12.056Z,8996.00
2018-04-08T13:17:47.817Z,9360.00
2018-04-08T13:18:23.033Z,9252.00
2018-04-08T13:18:58.373Z,9108.00
2018-04-08T13:19:34.166Z,9164.00
2018-04-08T13:20:09.407Z,9040.00
2018-04-08T13:20:44.797Z,8896.00
2018-04-08T13:21:20.151Z,8724.00
2018-04-08T13:21:55.448Z,8564.00
2018-04-08T13:22:30.947Z,8456.00
2018-04-08T13:23:06.355Z,8336.00
2018-04-08T13:23:42.085Z,8280.00
2018-04-08T13:24:17.530Z,8184.00
2018-04-08T13:24:52.990Z,8112.00
2018-04-08T13:25:28.827Z,8096.00
2018-04-08T13:26:04.385Z,8060.00
2018-04-08T13:26:40.333Z,8040.00
2018-04-08T13:27:16.631Z,8020.00
2018-04-08T13:27:52.143Z,8000.00
2018-04-08T13:28:27.798Z,8000.00
2018-04-08T13:29:03.511Z,7992.00
2018-04-08T13:29:39.079Z,8032.00
2018-04-08T13:30:14.610Z,8028.00
2018-04-08T13:30:52.869Z,7984.00
2018-04-08T13:31:28.284Z,7936.00
2018-04-08T13:32:03.631Z,7864.00
2018-04-08T13:32:39.082Z,7784.00
2018-04-08T13:33:14.491Z,7716.00
2018-04-08T13:33:50.601Z,7636.00
2018-04-08T13:34:25.948Z,7576.00
2018-04-08T13:35:01.251Z,7524.00
2018-04-08T13:35:36.393Z,7488.00
2018-04-08T13:36:11.707Z,7436.00
2018-04-08T13:36:47.071Z,7356.00
2018-04-08T13:37:22.388Z,7292.00
2018-04-08T13:37:57.733Z,7200.00
2018-04-08T13:38:32.993Z,7100.00
2018-04-08T13:39:08.506Z,6992.00
2018-04-08T13:39:43.802Z,6904.00
2018-04-08T13:40:21.346Z,6820.00
2018-04-08T13:40:57.618Z,6720.00
2018-04-08T13:41:36.988Z,6616.00
2018-04-08T13:42:14.421Z,6536.00
2018-04-08T13:42:51.389Z,6456.00
2018-04-08T13:43:26.846Z,6364.00
2018-04-08T13:44:02.413Z,6288.00
2018-04-08T13:44:38.013Z,6228.00
2018-04-08T13:45:13.342Z,6156.00
2018-04-08T13:45:49.457Z,6096.00
2018-04-08T13:46:25.007Z,6044.00
2018-04-08T13:47:00.306Z,5988.00
2018-04-08T13:47:36.217Z,5924.00
2018-04-08T13:48:11.599Z,5868.00
2018-04-08T13:48:47.160Z,5832.00
2018-04-08T13:49:22.683Z,5768.00
2018-04-08T13:49:57.998Z,5564.00
2018-04-08T13:50:33.476Z,5332.00
2018-04-08T13:51:08.825Z,5192.00
2018-04-08T13:51:44.566Z,5028.00
2018-04-08T13:52:20.028Z,5232.00
2018-04-08T13:52:55.426Z,5132.00
2018-04-08T13:53:31.124Z,5168.00
2018-04-08T13:54:06.673Z,4744.00
2018-04-08T13:54:41.932Z,4744.00
2018-04-08T13:55:17.402Z,4520.00
2018-04-08T13:55:52.827Z,4512.00
2018-04-08T13:56:28.159Z,4412.00
2018-04-08T13:57:03.383Z,4416.00
2018-04-08T13:57:38.733Z,4492.00
2018-04-08T13:58:14.345Z,4444.00
2018-04-08T13:58:49.670Z,4760.00
2018-04-08T13:59:25.001Z,4736.00
2018-04-08T14:00:00.410Z,4916.00
2018-04-08T14:00:36.265Z,5100.00
2018-04-08T14:01:11.782Z,5048.00
2018-04-08T14:01:47.263Z,4868.00
2018-04-08T14:02:22.715Z,4900.00
2018-04-08T14:02:58.146Z,4732.00
2018-04-08T14:03:33.590Z,4872.00
2018-04-08T14:04:09.116Z,4684.00
2018-04-08T14:04:44.634Z,5044.00
2018-04-08T14:05:19.691Z,5100.00
2018-04-08T14:05:55.000Z,5072.00
2018-04-08T14:06:30.716Z,5064.00
2018-04-08T14:07:06.237Z,5064.00
2018-04-08T14:07:41.731Z,5052.00
2018-04-08T14:08:17.131Z,5052.00
2018-04-08T14:08:52.448Z,5028.00
2018-04-08T14:09:27.950Z,4772.00
2018-04-08T14:10:03.185Z,4872.00
2018-04-08T14:10:39.475Z,4992.00
2018-04-08T14:11:14.637Z,5004.00
2018-04-08T14:11:50.479Z,5036.00
2018-04-08T14:12:25.837Z,5004.00
2018-04-08T14:13:01.268Z,4948.00
2018-04-08T14:13:36.922Z,5064.00
2018-04-08T14:14:12.535Z,5188.00
2018-04-08T14:14:47.797Z,5232.00
2018-04-08T14:15:23.016Z,5292.00
2018-04-08T14:15:58.345Z,5356.00
2018-04-08T14:16:33.950Z,5432.00
2018-04-08T14:17:09.204Z,5492.00
2018-04-08T14:17:44.675Z,5540.00
2018-04-08T14:18:19.822Z,5548.00
2018-04-08T14:18:55.275Z,5528.00
2018-04-08T14:19:30.530Z,5464.00
2018-04-08T14:20:06.209Z,5388.00
2018-04-08T14:20:41.588Z,5324.00
2018-04-08T14:21:17.028Z,5252.00
2018-04-08T14:21:52.518Z,5196.00
2018-04-08T14:22:27.877Z,5164.00
2018-04-08T14:23:04.043Z,5164.00
2018-04-08T14:23:39.148Z,5184.00
2018-04-08T14:24:14.428Z,5240.00
2018-04-08T14:24:49.948Z,5308.00
2018-04-08T14:25:25.574Z,5400.00
2018-04-08T14:26:03.590Z,5524.00
2018-04-08T14:26:43.350Z,5656.00
2018-04-08T14:27:18.605Z,5772.00
2018-04-08T14:27:54.038Z,5896.00
2018-04-08T14:28:29.940Z,5840.00
2018-04-08T14:29:05.404Z,5788.00
2018-04-08T14:29:41.403Z,5980.00
2018-04-08T14:30:16.762Z,6088.00
2018-04-08T14:30:54.279Z,5996.00
2018-04-08T14:31:29.836Z,6348.00
2018-04-08T14:32:05.322Z,6504.00
2018-04-08T14:32:41.006Z,6628.00
2018-04-08T14:33:16.644Z,6768.00
2018-04-08T14:33:51.904Z,6864.00
2018-04-08T14:34:27.161Z,6932.00
2018-04-08T14:35:02.596Z,6940.00
2018-04-08T14:35:39.304Z,6800.00
2018-04-08T14:36:14.858Z,6744.00
2018-04-08T14:36:50.282Z,6712.00
2018-04-08T14:37:25.420Z,6668.00
2018-04-08T14:38:00.632Z,6572.00
2018-04-08T14:38:36.404Z,6236.00
2018-04-08T14:39:11.909Z,6180.00
2018-04-08T14:39:48.272Z,6520.00
2018-04-08T14:40:23.619Z,6496.00
2018-04-08T14:41:00.296Z,6520.00
2018-04-08T14:41:35.611Z,6488.00
2018-04-08T14:42:11.046Z,6512.00
2018-04-08T14:42:47.461Z,6520.00
2018-04-08T14:43:22.917Z,6612.00
2018-04-08T14:43:58.334Z,6540.00
2018-04-08T14:44:33.584Z,6316.00
2018-04-08T14:45:10.596Z,6308.00
2018-04-08T14:45:46.493Z,6140.00
2018-04-08T14:46:21.810Z,6040.00
2018-04-08T14:46:57.297Z,5868.00
2018-04-08T14:47:32.534Z,5740.00
2018-04-08T14:48:08.015Z,5580.00
2018-04-08T14:48:43.250Z,5492.00
2018-04-08T14:49:19.026Z,5400.00
2018-04-08T14:49:55.097Z,5336.00
2018-04-08T14:50:30.758Z,5316.00
2018-04-08T14:51:06.182Z,5324.00
2018-04-08T14:51:43.377Z,5360.00